createdAt,value
2018-09-03T00:00:17.035Z,155.90
2018-09-03T00:01:17.003Z,138.90
2018-09-03T00:02:16.970Z,157.20
2018-09-03T00:03:16.941Z,164.90
2018-09-03T00:04:16.903Z,145.70
2018-09-03T00:05:16.874Z,153.20
2018-09-03T00:06:16.830Z,150.90
2018-09-03T00:07:16.808Z,152.80
2018-09-03T00:08:16.767Z,141.40
2018-09-03T00:09:16.728Z,147.80
2018-09-03T00:10:16.708Z,143.60
2018-09-03T00:11:16.652Z,153.20
2018-09-03T00:12:16.644Z,138.00
2018-09-03T00:13:16.596Z,129.10
2018-09-03T00:14:16.566Z,152.20
2018-09-03T00:15:16.528Z,170.10
2018-09-03T00:16:16.497Z,146.10
2018-09-03T00:17:16.450Z,147.70
2018-09-03T00:18:16.426Z,143.80
2018-09-03T00:19:16.385Z,136.60
2018-09-03T00:20:16.351Z,128.80
2018-09-03T00:21:16.315Z,117.60
2018-09-03T00:22:16.279Z,114.60
2018-09-03T00:23:16.264Z,112.60
2018-09-03T00:24:16.209Z,117.10
2018-09-03T00:25:16.181Z,127.10
2018-09-03T00:26:16.147Z,125.90
2018-09-03T00:27:16.115Z,138.60
2018-09-03T00:28:16.082Z,133.00
2018-09-03T00:29:16.041Z,131.90
2018-09-03T00:30:16.014Z,118.30
2018-09-03T00:31:15.991Z,118.20
2018-09-03T00:32:15.941Z,111.40
2018-09-03T00:33:15.918Z,108.40
2018-09-03T00:34:15.909Z,112.00
2018-09-03T00:35:15.834Z,101.50
2018-09-03T00:36:15.789Z,112.30
2018-09-03T00:37:15.770Z,116.40
2018-09-03T00:38:15.731Z,123.20
2018-09-03T00:39:15.699Z,126.90
2018-09-03T00:40:15.678Z,130.30
2018-09-03T00:41:15.636Z,114.70
2018-09-03T00:42:15.591Z,131.80
2018-09-03T00:43:15.573Z,125.00
2018-09-03T00:44:16.117Z,120.90
2018-09-03T00:45:15.511Z,127.80
2018-09-03T00:46:15.453Z,128.40
2018-09-03T00:47:15.414Z,130.40
2018-09-03T00:48:15.401Z,133.10
2018-09-03T00:49:15.365Z,124.30
2018-09-03T00:50:15.320Z,120.80
2018-09-03T00:51:15.295Z,129.30
2018-09-03T00:52:15.249Z,130.70
2018-09-03T00:53:15.214Z,127.00
2018-09-03T00:54:15.205Z,123.60
2018-09-03T00:55:15.163Z,121.00
2018-09-03T00:56:15.118Z,131.50
2018-09-03T00:57:15.088Z,119.60
2018-09-03T00:58:15.052Z,119.70
2018-09-03T00:59:15.030Z,123.50
2018-09-03T01:00:14.974Z,109.10
2018-09-03T01:01:14.945Z,109.00
2018-09-03T01:02:14.900Z,119.10
2018-09-03T01:03:14.884Z,125.00
2018-09-03T01:04:14.846Z,125.30
2018-09-03T01:05:14.812Z,136.20
2018-09-03T01:06:14.769Z,121.80
2018-09-03T01:07:14.744Z,129.70
2018-09-03T01:08:14.705Z,114.50
2018-09-03T01:09:14.672Z,109.60
2018-09-03T01:10:14.636Z,119.30
2018-09-03T01:11:14.607Z,116.60
2018-09-03T01:12:14.578Z,119.10
2018-09-03T01:13:14.581Z,114.80
2018-09-03T01:14:14.498Z,154.50
2018-09-03T01:15:14.477Z,144.80
2018-09-03T01:16:14.439Z,111.80
2018-09-03T01:17:14.422Z,116.70
2018-09-03T01:18:14.377Z,120.70
2018-09-03T01:19:14.366Z,118.00
2018-09-03T01:20:14.357Z,205.60
2018-09-03T01:21:14.286Z,140.70
2018-09-03T01:22:14.226Z,135.90
2018-09-03T01:23:14.192Z,125.40
2018-09-03T01:24:14.164Z,137.10
2018-09-03T01:25:14.126Z,206.70
2018-09-03T01:26:14.084Z,155.20
2018-09-03T01:27:14.054Z,144.30
2018-09-03T01:28:14.047Z,176.70
2018-09-03T01:29:13.979Z,137.10
2018-09-03T01:30:13.956Z,177.70
2018-09-03T01:31:13.933Z,168.70
2018-09-03T01:32:13.895Z,167.70
2018-09-03T01:33:13.855Z,166.10
2018-09-03T01:34:13.849Z,162.90
2018-09-03T01:35:13.789Z,163.50
2018-09-03T01:36:13.752Z,163.80
2018-09-03T01:37:13.718Z,176.20
2018-09-03T01:38:13.693Z,178.30
2018-09-03T01:39:13.649Z,164.70
2018-09-03T01:40:13.606Z,186.30
2018-09-03T01:41:13.573Z,191.50
2018-09-03T01:42:13.556Z,189.70
2018-09-03T01:43:13.522Z,193.30
2018-09-03T01:44:13.485Z,213.20
2018-09-03T01:45:13.445Z,227.00
2018-09-03T01:46:13.420Z,241.60
2018-09-03T01:47:13.371Z,176.80
2018-09-03T01:48:13.343Z,168.30
2018-09-03T01:49:13.320Z,179.00
2018-09-03T01:50:13.270Z,160.40
2018-09-03T01:51:13.233Z,174.60
2018-09-03T01:52:13.204Z,130.60
2018-09-03T01:53:13.175Z,150.20
2018-09-03T01:54:15.715Z,146.00
2018-09-03T01:55:13.119Z,157.10
2018-09-03T01:56:13.062Z,129.00
2018-09-03T01:57:13.014Z,161.20
2018-09-03T01:58:12.988Z,127.50
2018-09-03T01:59:12.955Z,116.20
2018-09-03T02:00:12.940Z,163.20
2018-09-03T02:01:12.948Z,130.90
2018-09-03T02:02:12.877Z,126.90
2018-09-03T02:03:12.840Z,135.30
2018-09-03T02:04:12.789Z,132.60
2018-09-03T02:05:12.763Z,100.20
2018-09-03T02:06:12.758Z,111.10
2018-09-03T02:07:12.675Z,103.40
2018-09-03T02:08:12.660Z,97.60
2018-09-03T02:09:12.633Z,97.60
2018-09-03T02:10:12.583Z,102.60
2018-09-03T02:11:12.629Z,116.50
2018-09-03T02:12:12.516Z,113.60
2018-09-03T02:13:12.502Z,113.60
2018-09-03T02:14:12.441Z,93.00
2018-09-03T02:15:12.418Z,94.70
2018-09-03T02:16:12.392Z,109.50
2018-09-03T02:17:12.342Z,102.70
2018-09-03T02:18:12.315Z,102.20
2018-09-03T02:19:12.291Z,104.30
2018-09-03T02:20:12.258Z,95.30
2018-09-03T02:21:12.227Z,102.70
2018-09-03T02:22:12.168Z,105.30
2018-09-03T02:23:12.142Z,113.70
2018-09-03T02:24:12.108Z,107.50
2018-09-03T02:25:12.186Z,106.50
2018-09-03T02:26:12.030Z,97.70
2018-09-03T02:27:12.005Z,106.10
2018-09-03T02:28:11.998Z,96.20
2018-09-03T02:29:11.941Z,101.10
2018-09-03T02:30:11.901Z,104.50
2018-09-03T02:31:11.898Z,110.20
2018-09-03T02:32:11.831Z,104.40
2018-09-03T02:33:11.806Z,95.80
2018-09-03T02:34:11.758Z,155.30
2018-09-03T02:35:11.724Z,132.20
2018-09-03T02:36:11.710Z,120.70
2018-09-03T02:37:11.659Z,109.10
2018-09-03T02:38:11.629Z,101.70
2018-09-03T02:39:11.605Z,126.50
2018-09-03T02:40:11.554Z,111.90
2018-09-03T02:41:11.517Z,115.40
2018-09-03T02:42:11.497Z,114.40
2018-09-03T02:43:11.454Z,98.10
2018-09-03T02:44:11.428Z,102.40
2018-09-03T02:45:11.385Z,99.30
2018-09-03T02:46:11.366Z,97.60
2018-09-03T02:47:11.333Z,100.80
2018-09-03T02:48:11.286Z,96.90
2018-09-03T02:49:11.244Z,92.00
2018-09-03T02:50:12.146Z,90.00
2018-09-03T02:51:11.178Z,79.30
2018-09-03T02:52:11.155Z,80.70
2018-09-03T02:53:11.112Z,107.90
2018-09-03T02:54:11.073Z,119.30
2018-09-03T02:55:11.072Z,118.20
2018-09-03T02:56:11.008Z,135.40
2018-09-03T02:57:10.972Z,138.00
2018-09-03T02:58:10.935Z,118.10
2018-09-03T02:59:11.681Z,196.10
2018-09-03T03:00:10.886Z,187.40
2018-09-03T03:01:10.835Z,150.60
2018-09-03T03:02:10.804Z,145.10
2018-09-03T03:03:10.764Z,139.80
2018-09-03T03:04:10.733Z,142.80
2018-09-03T03:05:10.716Z,122.90
2018-09-03T03:06:10.711Z,108.70
2018-09-03T03:07:10.697Z,102.80
2018-09-03T03:08:10.597Z,93.60
2018-09-03T03:09:10.559Z,98.20
2018-09-03T03:10:10.549Z,95.50
2018-09-03T03:11:10.522Z,106.00
2018-09-03T03:12:10.463Z,94.10
2018-09-03T03:13:10.428Z,171.70
2018-09-03T03:14:10.383Z,132.00
2018-09-03T03:15:10.360Z,99.20
2018-09-03T03:16:10.332Z,100.20
2018-09-03T03:17:10.324Z,99.80
2018-09-03T03:18:10.257Z,95.10
2018-09-03T03:19:10.219Z,93.40
2018-09-03T03:20:10.211Z,102.00
2018-09-03T03:21:10.220Z,96.60
2018-09-03T03:22:10.119Z,110.40
2018-09-03T03:23:10.082Z,122.60
2018-09-03T03:24:10.045Z,123.10
2018-09-03T03:25:10.017Z,179.20
2018-09-03T03:26:09.990Z,224.80
2018-09-03T03:27:09.955Z,260.20
2018-09-03T03:28:09.917Z,148.40
2018-09-03T03:29:09.874Z,154.70
2018-09-03T03:30:09.843Z,165.40
2018-09-03T03:31:09.811Z,168.10
2018-09-03T03:32:09.776Z,158.40
2018-09-03T03:33:09.743Z,142.20
2018-09-03T03:34:09.707Z,185.50
2018-09-03T03:35:09.685Z,168.30
2018-09-03T03:36:09.653Z,147.50
2018-09-03T03:37:09.635Z,174.20
2018-09-03T03:38:09.582Z,177.80
2018-09-03T03:39:09.532Z,177.90
2018-09-03T03:40:09.513Z,164.00
2018-09-03T03:41:09.497Z,158.20
2018-09-03T03:42:09.439Z,153.50
2018-09-03T03:43:09.400Z,157.30
2018-09-03T03:44:09.371Z,143.50
2018-09-03T03:45:09.340Z,128.10
2018-09-03T03:46:09.311Z,148.90
2018-09-03T03:47:09.271Z,219.50
2018-09-03T03:48:09.308Z,186.30
2018-09-03T03:49:09.190Z,169.40
2018-09-03T03:50:09.162Z,155.30
2018-09-03T03:51:09.139Z,154.50
2018-09-03T03:52:09.113Z,162.30
2018-09-03T03:53:09.074Z,148.90
2018-09-03T03:54:09.052Z,150.00
2018-09-03T03:55:09.089Z,143.00
2018-09-03T03:56:08.958Z,109.30
2018-09-03T03:57:08.921Z,105.90
2018-09-03T03:58:08.891Z,124.70
2018-09-03T03:59:08.852Z,131.10
2018-09-03T04:00:08.841Z,135.90
2018-09-03T04:01:08.790Z,121.60
2018-09-03T04:02:08.757Z,131.90
2018-09-03T04:03:08.719Z,111.60
2018-09-03T04:04:08.699Z,107.90
2018-09-03T04:05:08.648Z,103.40
2018-09-03T04:06:08.621Z,97.00
2018-09-03T04:07:08.580Z,99.30
2018-09-03T04:08:08.560Z,94.00
2018-09-03T04:09:08.510Z,93.50
2018-09-03T04:10:08.502Z,87.30
2018-09-03T04:11:08.474Z,97.50
2018-09-03T04:12:08.410Z,83.70
2018-09-03T04:13:08.385Z,88.00
2018-09-03T04:14:08.337Z,81.80
2018-09-03T04:15:08.304Z,96.10
2018-09-03T04:16:08.338Z,103.40
2018-09-03T04:17:08.232Z,106.80
2018-09-03T04:18:08.202Z,105.10
2018-09-03T04:19:08.171Z,118.90
2018-09-03T04:20:08.174Z,126.20
2018-09-03T04:21:08.119Z,108.00
2018-09-03T04:22:08.134Z,122.40
2018-09-03T04:23:08.153Z,115.70
2018-09-03T04:24:07.991Z,121.50
2018-09-03T04:25:07.964Z,121.20
2018-09-03T04:26:07.917Z,93.40
2018-09-03T04:27:07.884Z,95.50
2018-09-03T04:28:08.005Z,86.80
2018-09-03T04:29:07.854Z,86.30
2018-09-03T04:30:07.793Z,83.80
2018-09-03T04:31:07.771Z,90.10
2018-09-03T04:32:07.718Z,89.80
2018-09-03T04:33:07.696Z,131.30
2018-09-03T04:34:07.648Z,106.70
2018-09-03T04:35:07.611Z,103.40
2018-09-03T04:36:07.600Z,89.90
2018-09-03T04:37:07.544Z,83.20
2018-09-03T04:38:07.528Z,85.70
2018-09-03T04:39:07.485Z,93.20
2018-09-03T04:40:07.450Z,97.80
2018-09-03T04:41:07.423Z,100.50
2018-09-03T04:42:07.382Z,148.10
2018-09-03T04:43:07.341Z,102.60
2018-09-03T04:44:07.312Z,96.70
2018-09-03T04:45:07.266Z,87.60
2018-09-03T04:46:07.250Z,70.40
2018-09-03T04:47:07.203Z,79.30
2018-09-03T04:48:07.263Z,80.70
2018-09-03T04:49:07.158Z,90.20
2018-09-03T04:50:07.118Z,94.10
2018-09-03T04:51:07.104Z,91.20
2018-09-03T04:52:07.045Z,91.90
2018-09-03T04:53:07.066Z,84.80
2018-09-03T04:54:06.958Z,143.90
2018-09-03T04:55:07.004Z,90.00
2018-09-03T04:56:06.901Z,106.60
2018-09-03T04:57:06.865Z,93.30
2018-09-03T04:58:06.855Z,98.60
2018-09-03T04:59:06.819Z,96.80
2018-09-03T05:00:06.763Z,94.40
2018-09-03T05:01:06.794Z,78.20
2018-09-03T05:02:06.730Z,75.00
2018-09-03T05:03:06.710Z,78.30
2018-09-03T05:04:06.686Z,97.10
2018-09-03T05:05:07.235Z,95.00
2018-09-03T05:06:06.633Z,104.40
2018-09-03T05:07:06.624Z,103.70
2018-09-03T05:08:06.499Z,120.30
2018-09-03T05:09:06.458Z,103.80
2018-09-03T05:10:06.421Z,101.50
2018-09-03T05:11:06.424Z,92.30
2018-09-03T05:12:06.354Z,92.10
2018-09-03T05:13:06.343Z,86.60
2018-09-03T05:14:06.357Z,80.20
2018-09-03T05:15:06.240Z,86.50
2018-09-03T05:16:06.229Z,83.20
2018-09-03T05:17:06.181Z,88.80
2018-09-03T05:18:06.150Z,85.50
2018-09-03T05:19:06.132Z,72.30
2018-09-03T05:20:06.076Z,76.50
2018-09-03T05:21:06.054Z,81.10
2018-09-03T05:22:06.015Z,79.20
2018-09-03T05:23:05.984Z,92.70
2018-09-03T05:24:05.973Z,85.80
2018-09-03T05:25:05.921Z,81.70
2018-09-03T05:26:05.965Z,73.60
2018-09-03T05:27:05.905Z,72.90
2018-09-03T05:28:05.824Z,79.60
2018-09-03T05:29:05.902Z,84.80
2018-09-03T05:30:05.815Z,88.20
2018-09-03T05:31:05.809Z,97.40
2018-09-03T05:32:05.683Z,125.50
2018-09-03T05:33:05.637Z,82.10
2018-09-03T05:34:05.644Z,81.30
2018-09-03T05:35:05.576Z,78.50
2018-09-03T05:36:05.570Z,99.10
2018-09-03T05:37:05.514Z,75.20
2018-09-03T05:38:05.503Z,86.60
2018-09-03T05:39:05.503Z,95.60
2018-09-03T05:40:05.429Z,107.80
2018-09-03T05:41:05.389Z,92.20
2018-09-03T05:42:05.339Z,124.70
2018-09-03T05:43:05.384Z,101.00
2018-09-03T05:44:05.380Z,110.80
2018-09-03T05:45:05.226Z,107.60
2018-09-03T05:46:05.204Z,110.20
2018-09-03T05:47:05.160Z,108.60
2018-09-03T05:48:05.134Z,100.50
2018-09-03T05:49:05.120Z,99.80
2018-09-03T05:50:05.171Z,100.60
2018-09-03T05:51:05.039Z,100.90
2018-09-03T05:52:04.992Z,99.40
2018-09-03T05:53:04.957Z,93.80
2018-09-03T05:54:04.950Z,94.70
2018-09-03T05:55:04.886Z,98.20
2018-09-03T05:56:04.874Z,99.30
2018-09-03T05:57:04.811Z,105.80
2018-09-03T05:58:04.784Z,108.10
2018-09-03T05:59:04.785Z,96.80
2018-09-03T06:00:04.723Z,91.40
2018-09-03T06:01:04.691Z,112.50
2018-09-03T06:02:04.640Z,105.40
2018-09-03T06:03:04.626Z,92.10
2018-09-03T06:04:04.598Z,98.10
2018-09-03T06:05:04.554Z,97.30
2018-09-03T06:06:04.562Z,96.40
2018-09-03T06:07:04.478Z,93.80
2018-09-03T06:08:04.442Z,103.10
2018-09-03T06:09:04.414Z,108.00
2018-09-03T06:10:04.389Z,110.90
2018-09-03T06:11:04.408Z,105.50
2018-09-03T06:12:04.302Z,117.80
2018-09-03T06:13:04.290Z,106.90
2018-09-03T06:14:04.238Z,119.70
2018-09-03T06:15:04.218Z,109.90
2018-09-03T06:16:04.209Z,105.20
2018-09-03T06:17:04.123Z,112.50
2018-09-03T06:18:04.109Z,111.40
2018-09-03T06:19:04.076Z,111.20
2018-09-03T06:20:04.034Z,121.50
2018-09-03T06:21:04.026Z,123.00
2018-09-03T06:22:06.250Z,120.00
2018-09-03T06:23:06.209Z,123.90
2018-09-03T06:24:05.873Z,131.30
2018-09-03T06:25:04.033Z,119.70
2018-09-03T06:26:04.721Z,122.40
2018-09-03T06:27:03.899Z,122.30
2018-09-03T06:28:04.721Z,123.60
2018-09-03T06:29:03.753Z,131.60
2018-09-03T06:30:04.266Z,123.30
2018-09-03T06:31:03.757Z,118.00
2018-09-03T06:32:03.626Z,123.80
2018-09-03T06:33:03.596Z,127.70
2018-09-03T06:34:03.573Z,127.70
2018-09-03T06:35:03.540Z,117.20
2018-09-03T06:36:03.493Z,115.10
2018-09-03T06:37:03.456Z,106.70
2018-09-03T06:38:03.412Z,111.80
2018-09-03T06:39:03.391Z,127.00
2018-09-03T06:40:03.357Z,130.40
2018-09-03T06:41:03.336Z,112.50
2018-09-03T06:42:03.271Z,114.60
2018-09-03T06:43:03.257Z,131.50
2018-09-03T06:44:03.209Z,110.60
2018-09-03T06:45:03.184Z,109.20
2018-09-03T06:46:03.145Z,117.10
2018-09-03T06:47:03.115Z,113.50
2018-09-03T06:48:03.079Z,95.40
2018-09-03T06:49:03.048Z,269.80
2018-09-03T06:50:03.006Z,194.80
2018-09-03T06:51:02.977Z,87.90
2018-09-03T06:52:02.956Z,82.10
2018-09-03T06:53:02.914Z,62.60
2018-09-03T06:54:02.883Z,62.10
2018-09-03T06:55:02.826Z,69.50
2018-09-03T06:56:02.853Z,62.30
2018-09-03T06:57:02.784Z,62.80
2018-09-03T06:58:02.779Z,51.70
2018-09-03T06:59:02.696Z,51.90
2018-09-03T07:00:02.674Z,53.60
2018-09-03T07:01:02.703Z,57.40
2018-09-03T07:02:02.591Z,49.50
2018-09-03T07:03:02.622Z,50.00
2018-09-03T07:04:02.584Z,60.40
2018-09-03T07:05:02.548Z,70.40
2018-09-03T07:06:02.505Z,72.30
2018-09-03T07:07:02.428Z,75.00
2018-09-03T07:08:02.394Z,75.70
2018-09-03T07:09:02.350Z,75.10
2018-09-03T07:10:02.312Z,76.30
2018-09-03T07:11:02.284Z,64.40
2018-09-03T07:12:02.272Z,59.70
2018-09-03T07:13:02.222Z,70.20
2018-09-03T07:14:02.173Z,54.60
2018-09-03T07:15:02.162Z,46.50
2018-09-03T07:16:02.131Z,43.70
2018-09-03T07:17:02.081Z,46.50
2018-09-03T07:18:02.048Z,42.20
2018-09-03T07:19:02.008Z,41.40
2018-09-03T07:20:02.020Z,43.00
2018-09-03T07:21:01.956Z,48.90
2018-09-03T07:22:01.921Z,38.20
2018-09-03T07:23:01.905Z,37.00
2018-09-03T07:24:01.872Z,40.40
2018-09-03T07:25:01.847Z,37.60
2018-09-03T07:26:15.524Z,37.50
2018-09-03T07:27:03.453Z,32.70
2018-09-03T07:28:01.740Z,34.00
2018-09-03T07:29:01.717Z,37.00
2018-09-03T07:30:01.652Z,30.00
2018-09-03T07:31:01.619Z,31.10
2018-09-03T07:32:01.575Z,32.60
2018-09-03T07:33:01.568Z,31.10
2018-09-03T07:34:01.548Z,28.70
2018-09-03T07:35:01.519Z,31.10
2018-09-03T07:36:01.495Z,32.70
2018-09-03T07:37:01.421Z,31.50
2018-09-03T07:38:01.377Z,31.00
2018-09-03T07:39:01.353Z,29.80
2018-09-03T07:40:01.316Z,30.20
2018-09-03T07:41:01.292Z,28.10
2018-09-03T07:42:01.243Z,31.40
2018-09-03T07:43:01.217Z,26.00
2018-09-03T07:44:01.225Z,27.50
2018-09-03T07:45:01.144Z,27.20
2018-09-03T07:46:01.114Z,28.60
2018-09-03T07:47:01.062Z,28.20
2018-09-03T07:48:01.044Z,29.40
2018-09-03T07:49:01.052Z,24.00
2018-09-03T07:50:00.975Z,25.90
2018-09-03T07:51:00.993Z,25.70
2018-09-03T07:52:00.924Z,27.50
2018-09-03T07:53:00.877Z,28.40
2018-09-03T07:54:00.855Z,26.90
2018-09-03T07:55:00.822Z,24.30
2018-09-03T07:56:00.796Z,24.90
2018-09-03T07:57:00.758Z,24.70
2018-09-03T07:58:00.733Z,23.10
2018-09-03T07:59:00.686Z,24.90
2018-09-03T08:00:00.658Z,23.80
2018-09-03T08:01:00.628Z,22.10
2018-09-03T08:02:00.579Z,22.10
2018-09-03T08:03:00.558Z,23.30
2018-09-03T08:04:00.555Z,22.50
2018-09-03T08:05:00.490Z,22.80
2018-09-03T08:06:00.453Z,20.90
2018-09-03T08:07:00.411Z,23.60
2018-09-03T08:08:01.259Z,23.70
2018-09-03T08:09:00.356Z,24.00
2018-09-03T08:10:00.329Z,23.70
2018-09-03T08:11:00.310Z,24.30
2018-09-03T08:12:00.257Z,23.80
2018-09-03T08:13:00.291Z,25.70
2018-09-03T08:14:00.203Z,25.00
2018-09-03T08:15:00.160Z,23.20
2018-09-03T08:16:00.139Z,23.30
2018-09-03T08:17:00.089Z,24.70
2018-09-03T08:18:00.065Z,24.70
2018-09-03T08:19:00.036Z,25.70
2018-09-03T08:20:00.000Z,23.80
2018-09-03T08:20:59.965Z,25.60
2018-09-03T08:21:59.927Z,25.50
2018-09-03T08:22:59.907Z,26.20
2018-09-03T08:23:59.862Z,25.50
2018-09-03T08:24:59.837Z,26.20
2018-09-03T08:25:59.797Z,26.60
2018-09-03T08:26:59.780Z,27.20
2018-09-03T08:27:59.730Z,27.60
2018-09-03T08:28:59.693Z,28.20
2018-09-03T08:29:59.722Z,27.00
2018-09-03T08:30:59.647Z,29.40
2018-09-03T08:31:59.605Z,31.40
2018-09-03T08:32:59.569Z,31.50
2018-09-03T08:33:59.553Z,31.90
2018-09-03T08:34:59.503Z,33.60
2018-09-03T08:35:59.480Z,43.10
2018-09-03T08:36:59.436Z,34.00
2018-09-03T08:37:59.400Z,33.50
2018-09-03T08:38:59.375Z,32.00
2018-09-03T08:39:59.364Z,33.70
2018-09-03T08:40:59.326Z,33.30
2018-09-03T08:41:59.264Z,38.70
2018-09-03T08:42:59.242Z,36.30
2018-09-03T08:43:59.204Z,35.50
2018-09-03T08:44:59.197Z,36.80
2018-09-03T08:45:59.158Z,37.90
2018-09-03T08:46:59.113Z,36.10
2018-09-03T08:47:59.082Z,37.90
2018-09-03T08:48:59.037Z,34.30
2018-09-03T08:49:59.008Z,32.30
2018-09-03T08:50:58.975Z,30.80
2018-09-03T08:51:58.946Z,33.70
2018-09-03T08:52:58.901Z,31.90
2018-09-03T08:53:58.879Z,32.50
2018-09-03T08:54:58.836Z,31.70
2018-09-03T08:55:58.813Z,32.50
2018-09-03T08:56:58.781Z,33.80
2018-09-03T08:57:58.760Z,29.40
2018-09-03T08:58:58.702Z,28.60
2018-09-03T08:59:58.672Z,29.20
2018-09-03T09:00:58.642Z,31.10
2018-09-03T09:01:58.601Z,27.90
2018-09-03T09:02:58.571Z,28.90
2018-09-03T09:03:58.541Z,32.10
2018-09-03T09:04:58.498Z,28.40
2018-09-03T09:05:58.545Z,30.50
2018-09-03T09:06:58.438Z,38.90
2018-09-03T09:07:58.432Z,34.00
2018-09-03T09:08:58.374Z,37.20
2018-09-03T09:09:58.323Z,34.70
2018-09-03T09:10:58.301Z,32.40
2018-09-03T09:11:58.278Z,30.90
2018-09-03T09:12:58.262Z,30.90
2018-09-03T09:13:58.233Z,32.00
2018-09-03T09:14:58.199Z,33.00
2018-09-03T09:15:58.134Z,36.10
2018-09-03T09:16:58.109Z,33.90
2018-09-03T09:17:58.087Z,33.90
2018-09-03T09:18:58.036Z,32.50
2018-09-03T09:19:58.006Z,30.50
2018-09-03T09:20:57.982Z,28.20
2018-09-03T09:21:57.928Z,26.40
2018-09-03T09:22:57.903Z,30.60
2018-09-03T09:23:57.882Z,27.70
2018-09-03T09:24:57.830Z,29.40
2018-09-03T09:25:57.808Z,31.70
2018-09-03T09:26:57.773Z,35.40
2018-09-03T09:27:57.748Z,33.90
2018-09-03T09:28:57.695Z,30.60
2018-09-03T09:29:57.672Z,30.30
2018-09-03T09:30:57.626Z,31.20
2018-09-03T09:31:57.595Z,33.20
2018-09-03T09:32:57.564Z,32.30
2018-09-03T09:33:57.552Z,33.90
2018-09-03T09:34:57.639Z,36.10
2018-09-03T09:35:57.487Z,32.50
2018-09-03T09:36:57.444Z,34.90
2018-09-03T09:37:57.403Z,38.80
2018-09-03T09:38:57.378Z,35.20
2018-09-03T09:39:57.329Z,33.30
2018-09-03T09:40:57.307Z,33.60
2018-09-03T09:41:57.261Z,32.10
2018-09-03T09:42:57.239Z,30.60
2018-09-03T09:43:57.207Z,29.80
2018-09-03T09:44:57.174Z,29.30
2018-09-03T09:45:57.137Z,29.60
2018-09-03T09:46:57.117Z,29.90
2018-09-03T09:47:57.062Z,30.50
2018-09-03T09:48:57.036Z,31.10
2018-09-03T09:49:56.998Z,29.90
2018-09-03T09:50:56.957Z,30.30
2018-09-03T09:51:56.950Z,30.10
2018-09-03T09:52:56.894Z,30.60
2018-09-03T09:53:56.872Z,31.40
2018-09-03T09:54:56.844Z,30.20
2018-09-03T09:55:56.803Z,31.70
2018-09-03T09:56:56.788Z,29.10
2018-09-03T09:57:56.742Z,33.30
2018-09-03T09:58:56.707Z,36.90
2018-09-03T09:59:56.682Z,34.70
2018-09-03T10:00:56.689Z,36.20
2018-09-03T10:01:56.641Z,35.90
2018-09-03T10:02:56.607Z,37.00
2018-09-03T10:03:56.536Z,35.90
2018-09-03T10:04:56.532Z,37.40
2018-09-03T10:05:56.480Z,35.20
2018-09-03T10:06:56.440Z,36.00
2018-09-03T10:07:56.411Z,39.90
2018-09-03T10:08:56.402Z,38.70
2018-09-03T10:09:56.342Z,38.70
2018-09-03T10:10:56.558Z,37.00
2018-09-03T10:11:56.298Z,34.00
2018-09-03T10:12:56.244Z,45.90
2018-09-03T10:13:56.285Z,34.30
2018-09-03T10:14:56.189Z,33.30
2018-09-03T10:15:56.148Z,34.50
2018-09-03T10:16:56.115Z,31.30
2018-09-03T10:17:56.072Z,29.90
2018-09-03T10:18:56.043Z,27.80
2018-09-03T10:19:56.017Z,27.60
2018-09-03T10:20:56.021Z,26.90
2018-09-03T10:21:55.939Z,26.70
2018-09-03T10:22:55.906Z,26.20
2018-09-03T10:23:55.887Z,24.30
2018-09-03T10:24:55.846Z,26.00
2018-09-03T10:25:55.802Z,27.30
2018-09-03T10:26:55.769Z,22.40
2018-09-03T10:27:55.741Z,23.10
2018-09-03T10:28:55.710Z,22.90
2018-09-03T10:29:55.679Z,21.50
2018-09-03T10:30:55.716Z,20.30
2018-09-03T10:31:55.674Z,23.70
2018-09-03T10:32:55.665Z,23.60
2018-09-03T10:33:55.577Z,23.30
2018-09-03T10:34:55.529Z,24.50
2018-09-03T10:35:55.490Z,24.10
2018-09-03T10:36:55.559Z,22.50
2018-09-03T10:37:55.432Z,22.40
2018-09-03T10:38:55.383Z,24.50
2018-09-03T10:39:55.353Z,18.40
2018-09-03T10:40:55.347Z,20.10
2018-09-03T10:41:55.313Z,19.60
2018-09-03T10:42:55.259Z,20.40
2018-09-03T10:43:55.210Z,20.80
2018-09-03T10:44:55.189Z,20.10
2018-09-03T10:45:55.174Z,20.20
2018-09-03T10:46:55.139Z,20.00
2018-09-03T10:47:55.094Z,19.30
2018-09-03T10:48:55.059Z,19.40
2018-09-03T10:49:55.027Z,19.20
2018-09-03T10:50:55.021Z,16.50
2018-09-03T10:51:54.977Z,17.00
2018-09-03T10:52:54.978Z,17.60
2018-09-03T10:53:54.904Z,17.50
2018-09-03T10:54:54.877Z,17.90
2018-09-03T10:55:54.838Z,17.20
2018-09-03T10:56:54.797Z,19.50
2018-09-03T10:57:54.792Z,15.90
2018-09-03T10:58:54.745Z,17.20
2018-09-03T10:59:54.709Z,17.00
2018-09-03T11:00:54.672Z,17.10
2018-09-03T11:01:54.647Z,17.60
2018-09-03T11:02:54.627Z,16.60
2018-09-03T11:03:54.584Z,17.00
2018-09-03T11:04:54.572Z,16.90
2018-09-03T11:05:54.518Z,17.90
2018-09-03T11:06:54.494Z,18.00
2018-09-03T11:07:54.483Z,17.50
2018-09-03T11:08:54.419Z,17.80
2018-09-03T11:09:54.390Z,18.10
2018-09-03T11:10:54.368Z,19.70
2018-09-03T11:11:54.340Z,17.30
2018-09-03T11:12:54.288Z,18.90
2018-09-03T11:13:54.260Z,19.20
2018-09-03T11:14:54.231Z,17.70
2018-09-03T11:15:54.216Z,18.40
2018-09-03T11:16:54.150Z,18.40
2018-09-03T11:17:54.126Z,18.30
2018-09-03T11:18:54.091Z,18.90
2018-09-03T11:19:54.088Z,19.10
2018-09-03T11:20:54.035Z,19.30
2018-09-03T11:21:54.012Z,19.30
2018-09-03T11:22:53.968Z,18.40
2018-09-03T11:23:53.947Z,19.70
2018-09-03T11:24:53.951Z,21.20
2018-09-03T11:25:53.883Z,20.10
2018-09-03T11:26:53.829Z,20.60
2018-09-03T11:27:53.806Z,21.00
2018-09-03T11:28:53.834Z,20.50
2018-09-03T11:29:53.744Z,22.30
2018-09-03T11:30:53.740Z,21.50
2018-09-03T11:31:53.690Z,22.60
2018-09-03T11:32:53.644Z,22.20
2018-09-03T11:33:53.617Z,22.30
2018-09-03T11:34:53.651Z,22.20
2018-09-03T11:35:53.564Z,20.70
2018-09-03T11:36:53.514Z,20.70
2018-09-03T11:37:53.490Z,21.70
2018-09-03T11:38:53.480Z,21.50
2018-09-03T11:39:53.437Z,21.20
2018-09-03T11:40:53.452Z,22.00
2018-09-03T11:41:53.359Z,22.30
2018-09-03T11:42:53.333Z,21.90
2018-09-03T11:43:53.325Z,21.80
2018-09-03T11:44:53.281Z,20.70
2018-09-03T11:45:53.255Z,20.80
2018-09-03T11:46:53.221Z,19.40
2018-09-03T11:47:53.183Z,20.10
2018-09-03T11:48:53.155Z,19.90
2018-09-03T11:49:53.144Z,20.40
2018-09-03T11:50:53.084Z,19.70
2018-09-03T11:51:53.061Z,19.90
2018-09-03T11:52:53.026Z,17.20
2018-09-03T11:53:52.995Z,18.00
2018-09-03T11:54:52.978Z,18.00
2018-09-03T11:55:52.936Z,19.40
2018-09-03T11:56:52.909Z,18.40
2018-09-03T11:57:52.861Z,19.00
2018-09-03T11:58:52.845Z,18.20
2018-09-03T11:59:52.815Z,18.00
2018-09-03T12:00:52.782Z,18.00
2018-09-03T12:01:52.764Z,18.70
2018-09-03T12:02:52.730Z,18.50
2018-09-03T12:03:52.681Z,17.90
2018-09-03T12:04:52.671Z,19.00
2018-09-03T12:05:52.632Z,17.80
2018-09-03T12:06:52.608Z,16.60
2018-09-03T12:07:52.563Z,17.70
2018-09-03T12:08:52.554Z,17.00
2018-09-03T12:09:52.507Z,18.00
2018-09-03T12:10:52.470Z,18.60
2018-09-03T12:11:52.530Z,17.40
2018-09-03T12:12:52.435Z,16.40
2018-09-03T12:13:52.402Z,18.10
2018-09-03T12:14:52.375Z,17.30
2018-09-03T12:15:52.352Z,18.80
2018-09-03T12:16:52.315Z,19.00
2018-09-03T12:17:52.300Z,18.80
2018-09-03T12:18:52.256Z,19.60
2018-09-03T12:19:52.234Z,18.70
2018-09-03T12:20:52.251Z,19.30
2018-09-03T12:21:52.199Z,19.70
2018-09-03T12:22:52.121Z,20.70
2018-09-03T12:23:52.107Z,20.10
2018-09-03T12:24:52.058Z,20.40
2018-09-03T12:25:52.032Z,20.30
2018-09-03T12:26:52.005Z,21.20
2018-09-03T12:27:51.971Z,21.40
2018-09-03T12:28:51.958Z,20.00
2018-09-03T12:29:51.902Z,20.80
2018-09-03T12:30:51.883Z,22.00
2018-09-03T12:31:51.863Z,22.70
2018-09-03T12:32:51.836Z,23.60
2018-09-03T12:33:51.819Z,23.80
2018-09-03T12:34:51.832Z,24.60
2018-09-03T12:35:51.737Z,24.50
2018-09-03T12:36:51.771Z,25.00
2018-09-03T12:37:51.699Z,25.00
2018-09-03T12:38:51.705Z,24.70
2018-09-03T12:39:51.669Z,25.40
2018-09-03T12:40:51.585Z,26.10
2018-09-03T12:41:51.559Z,26.10